Time;durP1;ratioP1;P1;durP2;ratioP2;P2;SDS_P1;SDS_P2;PMS_P1;PMS_P2;Temp;Humidity;BMP_temperature;BMP_pressure;BME280_temperature;BME280_humidity;BME280_pressure;Samples;Min_cycle;Max_cycle;Signal;HPM_P1;HPM_P2
2022/06/04 00:00:44;;;;;;;;;25.00;22.00;;;;;19.50;75.15;100921.28;4973463;28;45625;-78
2022/06/04 00:03:09;;;;;;;;;24.75;20.00;;;;;19.48;75.02;100929.56;4973927;28;45393;-78
2022/06/04 00:05:40;;;;;;;;;22.00;22.00;;;;;19.48;75.40;100932.25;4973212;28;45524;-77
2022/06/04 00:08:07;;;;;;;;;25.00;22.50;;;;;19.47;75.13;100935.09;4973237;28;45495;-77
2022/06/04 00:16:06;;;;;;;;;23.75;23.50;;;;;19.47;74.70;100919.72;4970168;28;45755;-77
2022/06/04 00:18:33;;;;;;;;;23.75;22.75;;;;;19.45;74.70;100923.56;4971022;28;45687;-77
2022/06/04 00:20:59;;;;;;;;;23.00;20.50;;;;;19.42;74.90;100922.00;4967659;28;45320;-77
2022/06/04 00:23:26;;;;;;;;;21.50;21.50;;;;;19.41;75.06;100923.00;4968112;28;45475;-77
2022/06/04 00:25:54;;;;;;;;;23.50;21.50;;;;;19.43;74.64;100926.38;4970065;28;48127;-77
2022/06/04 00:28:21;;;;;;;;;25.00;22.75;;;;;19.38;74.74;100920.56;4972848;28;45529;-77
2022/06/04 00:30:47;;;;;;;;;21.25;21.25;;;;;19.35;74.64;100919.00;4973955;28;45555;-77
2022/06/04 00:33:14;;;;;;;;;23.50;21.00;;;;;19.36;74.59;100917.13;4976007;28;45349;-77
2022/06/04 00:35:40;;;;;;;;;24.00;20.50;;;;;19.41;74.97;100927.53;4976699;28;45425;-77
2022/06/04 00:38:07;;;;;;;;;21.50;21.50;;;;;19.38;74.44;100917.84;4975777;28;45824;-77
2022/06/04 00:40:38;;;;;;;;;25.00;22.25;;;;;19.36;74.27;100918.00;4972610;28;45487;-77
2022/06/04 00:43:03;;;;;;;;;19.50;17.25;;;;;19.34;74.47;100911.06;4965101;28;45875;-77
2022/06/04 00:45:31;;;;;;;;;22.50;20.75;;;;;19.34;74.32;100911.06;4960811;28;45376;-77
2022/06/04 00:48:03;;;;;;;;;20.00;20.00;;;;;19.33;74.36;100918.28;4972930;28;45320;-77
2022/06/04 00:50:31;;;;;;;;;26.50;24.50;;;;;19.28;74.55;100909.75;4964636;28;45480;-77
2022/06/04 00:53:00;;;;;;;;;21.50;20.50;;;;;19.25;74.35;100914.56;4965009;28;45484;-77
2022/06/04 00:55:45;;;;;;;;;24.50;21.75;;;;;19.24;74.01;100908.31;4981256;28;47271;-77
2022/06/04 00:58:46;;;;;;;;;24.75;23.75;;;;;19.21;74.44;100908.59;4973658;28;45486;-77
2022/06/04 01:01:24;;;;;;;;;24.00;21.25;;;;;19.19;74.69;100905.16;4944586;28;45541;-77
2022/06/04 01:07:48;;;;;;;;;18.75;16.75;;;;;19.15;74.49;100883.00;4943869;28;45728;-77
2022/06/04 01:10:27;;;;;;;;;21.50;21.50;;;;;19.11;74.41;100883.41;4896793;28;45540;-77
2022/06/04 01:13:14;;;;;;;;;28.25;24.00;;;;;19.12;74.36;100882.41;4896604;29;45498;-77
2022/06/04 01:15:50;;;;;;;;;25.50;23.50;;;;;19.11;74.69;100886.13;4896801;29;45616;-77
2022/06/04 01:18:24;;;;;;;;;23.50;23.00;;;;;19.09;74.86;100880.00;4896550;29;45647;-77
2022/06/04 01:21:02;;;;;;;;;22.25;21.75;;;;;19.11;74.64;100880.72;4878045;29;45452;-77
2022/06/04 01:23:52;;;;;;;;;25.50;22.00;;;;;19.07;74.73;100880.16;4894176;29;45518;-77
2022/06/04 01:27:05;;;;;;;;;23.00;21.75;;;;;19.05;74.54;100874.03;4886527;29;45630;-77
2022/06/04 01:29:38;;;;;;;;;23.50;22.50;;;;;18.97;74.58;100876.56;4874516;29;46453;-77
2022/06/04 01:32:19;;;;;;;;;21.00;21.00;;;;;19.00;74.75;100861.94;4877598;29;45519;-77
2022/06/04 01:34:58;;;;;;;;;23.25;23.25;;;;;18.96;75.08;100874.88;4871555;29;45570;-77
2022/06/04 01:37:32;;;;;;;;;26.75;25.75;;;;;18.95;75.10;100848.84;4858726;29;47739;-77
2022/06/04 01:42:47;;;;;;;;;21.00;20.25;;;;;18.91;74.90;100852.84;4845492;29;45423;-77
2022/06/04 01:45:15;;;;;;;;;26.00;26.00;;;;;18.91;74.82;100864.47;4858696;29;45482;-77
2022/06/04 01:47:43;;;;;;;;;25.50;25.00;;;;;18.94;74.97;100857.97;4886387;29;45432;-77
2022/06/04 01:50:15;;;;;;;;;24.50;21.75;;;;;18.91;74.82;100863.63;4880254;29;47475;-77
2022/06/04 01:52:42;;;;;;;;;24.25;22.50;;;;;18.93;74.80;100853.56;4896028;29;45455;-77
2022/06/04 01:55:14;;;;;;;;;25.00;24.00;;;;;18.91;74.95;100864.47;4896379;29;45492;-77
2022/06/04 01:57:56;;;;;;;;;22.25;22.25;;;;;18.92;74.75;100868.03;4896387;29;45343;-77
2022/06/04 02:00:56;;;;;;;;;27.50;26.50;;;;;18.92;74.86;100860.78;4930700;28;46052;-77
2022/06/04 02:03:29;;;;;;;;;26.50;25.25;;;;;18.89;74.88;100855.66;4972997;28;45973;-77
2022/06/04 02:06:05;;;;;;;;;27.00;25.00;;;;;18.90;75.09;100849.25;4976121;28;45365;-77
2022/06/04 02:09:09;;;;;;;;;27.75;27.00;;;;;18.89;75.24;100842.19;4975471;28;45307;-77
2022/06/04 02:11:37;;;;;;;;;26.75;25.00;;;;;18.90;74.94;100845.72;4944358;28;47638;-77
2022/06/04 02:14:06;;;;;;;;;26.25;25.75;;;;;18.90;75.13;100843.03;4958520;28;45593;-76
2022/06/04 02:16:43;;;;;;;;;26.25;24.50;;;;;18.88;75.29;100836.91;4965018;28;45517;-77
2022/06/04 02:19:08;;;;;;;;;30.50;29.25;;;;;18.89;75.23;100846.72;4973015;28;45595;-76
2022/06/04 02:21:35;;;;;;;;;24.25;24.00;;;;;18.88;75.16;100850.41;4972887;28;46212;-76
2022/06/04 02:24:03;;;;;;;;;28.50;27.50;;;;;18.87;75.01;100848.69;4973839;28;45929;-76
2022/06/04 02:26:29;;;;;;;;;23.25;22.00;;;;;18.86;74.94;100830.81;4972773;28;45445;-77
2022/06/04 02:28:58;;;;;;;;;23.50;23.50;;;;;18.86;75.07;100845.16;4956128;28;45681;-77
2022/06/04 02:32:14;;;;;;;;;28.00;27.50;;;;;18.87;75.07;100849.56;4972707;28;47371;-77
2022/06/04 02:35:15;;;;;;;;;28.25;25.25;;;;;18.91;75.01;100839.34;4914546;28;45479;-77
2022/06/04 02:37:47;;;;;;;;;26.00;24.00;;;;;18.92;74.80;100838.34;4876853;29;45407;-77
2022/06/04 02:40:24;;;;;;;;;26.25;24.25;;;;;18.88;74.51;100840.50;4876709;29;45513;-77
2022/06/04 02:42:56;;;;;;;;;21.50;21.50;;;;;18.91;74.67;100845.59;4876894;29;45629;-77
2022/06/04 02:45:29;;;;;;;;;25.25;23.50;;;;;18.91;74.32;100834.81;4876610;29;45425;-77
2022/06/04 02:48:06;;;;;;;;;24.50;23.25;;;;;18.89;74.68;100828.69;4861742;29;45416;-77
2022/06/04 02:50:36;;;;;;;;;26.50;26.00;;;;;18.88;74.91;100837.78;4858272;29;45819;-77
2022/06/04 02:53:05;;;;;;;;;27.50;26.00;;;;;18.87;74.86;100835.22;4857736;29;45429;-77
2022/06/04 02:55:36;;;;;;;;;27.00;23.25;;;;;18.82;74.69;100832.09;4858021;29;45712;-77
2022/06/04 02:58:07;;;;;;;;;24.25;23.50;;;;;18.81;74.79;100833.94;4858021;29;45349;-77
2022/06/04 03:00:33;;;;;;;;;27.00;26.25;;;;;18.78;74.78;100839.56;4843429;29;45411;-77
2022/06/04 03:02:58;;;;;;;;;27.25;27.25;;;;;18.76;75.04;100837.97;4858371;29;45530;-77
2022/06/04 03:05:26;;;;;;;;;26.00;23.75;;;;;18.75;74.96;100829.03;4842075;29;45496;-77
2022/06/04 03:07:57;;;;;;;;;26.00;26.00;;;;;18.74;74.86;100832.75;4857521;29;45414;-77
2022/06/04 03:10:29;;;;;;;;;29.00;24.00;;;;;18.74;75.09;100832.75;4906023;28;45632;-77
2022/06/04 03:12:54;;;;;;;;;34.25;31.50;;;;;18.77;75.33;100835.19;4988935;28;45673;-77
2022/06/04 03:15:20;;;;;;;;;30.00;29.25;;;;;18.77;74.97;100835.19;4974759;28;45404;-77
2022/06/04 03:17:47;;;;;;;;;25.50;25.25;;;;;18.76;74.61;100841.59;4975143;28;45460;-77
2022/06/04 03:20:18;;;;;;;;;29.75;26.50;;;;;18.73;74.78;100842.66;4974463;28;46199;-77
2022/06/04 03:22:44;;;;;;;;;28.50;26.25;;;;;18.78;74.81;100844.13;4974216;28;45396;-77
2022/06/04 03:25:10;;;;;;;;;30.75;27.25;;;;;18.73;74.60;100837.25;4974178;28;45400;-77
2022/06/04 03:27:36;;;;;;;;;23.50;22.50;;;;;18.69;74.97;100830.44;4974821;28;45409;-76
2022/06/04 03:30:02;;;;;;;;;27.50;23.75;;;;;18.68;74.95;100825.19;4978251;28;45426;-77
2022/06/04 03:32:28;;;;;;;;;24.50;22.50;;;;;18.63;75.00;100830.97;4977491;28;46303;-77
2022/06/04 03:34:53;;;;;;;;;30.25;27.75;;;;;18.61;75.19;100826.72;4976924;28;54198;-77
2022/06/04 03:37:18;;;;;;;;;32.25;27.75;;;;;18.61;75.16;100815.94;4977345;28;45389;-77
2022/06/04 03:39:44;;;;;;;;;24.25;22.50;;;;;18.59;75.31;100821.47;5009414;28;45401;-76
2022/06/04 03:42:09;;;;;;;;;26.75;25.75;;;;;18.56;75.45;100815.50;4977453;28;46284;-76
2022/06/04 03:44:35;;;;;;;;;25.00;21.00;;;;;18.56;75.51;100823.56;4977867;28;45299;-76
2022/06/04 03:47:00;;;;;;;;;23.50;20.75;;;;;18.57;75.51;100817.19;4977536;28;45485;-76
2022/06/04 03:49:26;;;;;;;;;26.25;25.00;;;;;18.56;75.71;100810.09;4977316;28;45546;-76
2022/06/04 03:51:51;;;;;;;;;21.50;19.50;;;;;18.53;75.47;100806.69;4977287;28;45356;-76
2022/06/04 03:54:17;;;;;;;;;22.00;20.50;;;;;18.57;75.70;100801.00;4977410;28;45461;-76
2022/06/04 03:56:42;;;;;;;;;20.75;18.25;;;;;18.58;75.79;100798.19;4977937;28;45444;-77
2022/06/04 03:59:08;;;;;;;;;18.00;16.50;;;;;18.59;75.58;100801.72;4977387;28;45294;-76
2022/06/04 04:01:33;;;;;;;;;23.75;20.00;;;;;18.61;75.51;100816.78;4976823;28;46510;-76
2022/06/04 04:04:00;;;;;;;;;18.25;18.25;;;;;18.62;75.54;100837.38;4977211;28;45419;-76
2022/06/04 04:06:29;;;;;;;;;17.25;17.25;;;;;18.63;75.34;100855.25;4977355;28;45438;-76
2022/06/04 04:08:55;;;;;;;;;24.75;19.75;;;;;18.64;75.35;100846.19;4977597;28;45579;-77
2022/06/04 04:11:22;;;;;;;;;21.25;20.50;;;;;18.66;75.20;100852.28;4997860;28;45985;-77
2022/06/04 04:13:48;;;;;;;;;19.75;18.00;;;;;18.67;75.24;100851.31;4971800;28;45405;-77
2022/06/04 04:16:15;;;;;;;;;21.25;16.50;;;;;18.68;75.36;100863.78;4976703;28;45475;-76
2022/06/04 04:18:41;;;;;;;;;18.00;16.50;;;;;18.68;75.16;100871.88;4977253;28;49663;-77
2022/06/04 04:21:16;;;;;;;;;20.75;19.50;;;;;18.68;75.16;100877.25;4975398;28;48026;-76
2022/06/04 04:23:43;;;;;;;;;22.00;20.25;;;;;18.71;75.09;100878.84;4975471;28;47116;-76
2022/06/04 04:26:11;;;;;;;;;20.75;20.00;;;;;18.69;75.06;100879.00;4976930;28;45288;-77
2022/06/04 04:28:37;;;;;;;;;19.00;18.00;;;;;18.68;74.90;100893.44;4976819;28;45364;-77
2022/06/04 04:31:09;;;;;;;;;20.00;18.25;;;;;18.72;74.96;100907.53;4976749;28;46845;-77
2022/06/04 04:33:35;;;;;;;;;16.75;16.75;;;;;18.70;75.02;100918.44;4963574;28;45590;-77
2022/06/04 04:36:00;;;;;;;;;21.25;19.00;;;;;18.70;75.68;100929.22;4977120;28;52457;-77
2022/06/04 04:38:25;;;;;;;;;17.00;16.75;;;;;18.70;75.07;100925.69;4975784;28;45495;-76
2022/06/04 04:40:50;;;;;;;;;20.25;20.25;;;;;18.71;75.19;100930.06;4975868;28;58890;-76
2022/06/04 04:43:16;;;;;;;;;19.75;17.50;;;;;18.69;75.18;100935.63;4976795;28;45252;-76
2022/06/04 04:45:44;;;;;;;;;16.00;16.00;;;;;18.69;75.56;100941.03;4976104;28;45386;-76
2022/06/04 04:48:13;;;;;;;;;18.25;18.25;;;;;18.70;75.23;100936.47;4976696;28;45427;-76
2022/06/04 04:50:41;;;;;;;;;19.50;19.50;;;;;18.69;75.47;100922.13;4976952;28;46423;-76
2022/06/04 04:53:10;;;;;;;;;20.00;17.50;;;;;18.68;75.66;100927.66;4975960;28;45307;-76
2022/06/04 04:55:36;;;;;;;;;17.25;15.25;;;;;18.66;75.39;100946.66;4976368;28;45484;-76
2022/06/04 04:58:02;;;;;;;;;17.75;17.50;;;;;18.73;75.40;100947.84;4976451;28;45405;-76
2022/06/04 05:00:28;;;;;;;;;17.00;17.00;;;;;18.73;75.26;100958.63;4975709;28;45366;-76
2022/06/04 05:02:53;;;;;;;;;16.50;16.50;;;;;18.73;75.00;100952.38;4975722;28;45822;-77
2022/06/04 05:05:18;;;;;;;;;19.25;18.25;;;;;18.73;75.33;100949.69;4976296;28;45401;-77
2022/06/04 05:07:44;;;;;;;;;14.75;14.75;;;;;18.74;75.13;100938.78;4975962;28;45773;-77
2022/06/04 05:10:10;;;;;;;;;14.50;14.50;;;;;18.78;75.15;100939.38;4976133;28;46292;-77
2022/06/04 05:12:36;;;;;;;;;19.75;17.50;;;;;18.77;75.30;100932.28;4976244;28;45514;-77
2022/06/04 05:15:01;;;;;;;;;17.50;17.00;;;;;18.78;75.22;100936.69;4975399;28;45431;-77
2022/06/04 05:17:27;;;;;;;;;18.25;17.00;;;;;18.79;75.57;100914.13;4976165;28;45318;-77
2022/06/04 05:19:52;;;;;;;;;21.00;17.25;;;;;18.80;75.15;100909.59;4975889;28;46510;-77
2022/06/04 05:22:18;;;;;;;;;21.25;19.00;;;;;18.82;74.94;100921.94;4975944;28;45298;-77
2022/06/04 05:24:43;;;;;;;;;19.50;19.00;;;;;18.84;75.29;100921.81;4976177;28;45408;-77
2022/06/04 05:27:09;;;;;;;;;19.50;18.75;;;;;18.92;75.02;100911.19;4975632;28;50899;-77
2022/06/04 05:29:36;;;;;;;;;16.00;14.75;;;;;18.91;74.65;100910.34;4974940;28;47595;-77
2022/06/04 05:32:02;;;;;;;;;18.00;15.50;;;;;18.92;74.72;100897.69;4975672;28;45428;-77
2022/06/04 05:34:29;;;;;;;;;18.50;15.25;;;;;18.91;74.97;100890.59;4975475;28;45540;-77
2022/06/04 05:36:54;;;;;;;;;17.75;17.25;;;;;18.94;74.99;100888.47;4976010;28;45435;-77
2022/06/04 05:39:21;;;;;;;;;15.00;14.75;;;;;18.92;74.98;100879.66;4975746;28;47174;-77
2022/06/04 05:41:46;;;;;;;;;14.50;14.50;;;;;18.90;75.07;100876.25;4976261;28;45451;-77
2022/06/04 05:44:12;;;;;;;;;14.75;13.50;;;;;18.92;74.89;100876.13;4975555;28;45447;-77
2022/06/04 05:46:44;;;;;;;;;15.25;14.25;;;;;18.95;75.10;100881.22;4975645;28;45561;-77
2022/06/04 05:49:11;;;;;;;;;19.50;16.50;;;;;18.97;75.15;100890.03;4984873;28;47329;-77
2022/06/04 05:51:38;;;;;;;;;19.50;16.00;;;;;18.99;74.88;100900.72;4972707;28;45940;-77
2022/06/04 05:54:05;;;;;;;;;19.00;15.75;;;;;18.98;74.89;100899.00;4976020;28;45461;-77
2022/06/04 05:56:33;;;;;;;;;15.25;14.75;;;;;19.03;74.72;100905.69;4974573;28;45361;-77
2022/06/04 05:59:01;;;;;;;;;19.75;18.50;;;;;19.11;74.60;100908.56;4975305;28;46265;-77
2022/06/04 06:01:29;;;;;;;;;20.50;18.25;;;;;19.16;74.68;100919.78;5006328;28;45495;-77
2022/06/04 06:03:56;;;;;;;;;18.50;17.00;;;;;19.24;74.63;100929.03;4975626;28;45611;-77
2022/06/04 06:06:24;;;;;;;;;15.75;15.75;;;;;19.25;74.25;100945.13;4975557;28;45534;-77
2022/06/04 06:08:51;;;;;;;;;22.00;15.75;;;;;19.29;73.86;100946.56;4974409;28;47084;-77
2022/06/04 06:11:18;;;;;;;;;18.00;16.50;;;;;19.35;73.99;100934.34;4975309;28;45274;-77
2022/06/04 06:13:44;;;;;;;;;15.50;15.50;;;;;19.33;73.99;100934.47;5006676;28;45538;-77
2022/06/04 06:16:29;;;;;;;;;20.00;17.25;;;;;19.36;74.09;100942.31;4974918;28;45372;-77
2022/06/04 06:18:55;;;;;;;;;22.25;19.50;;;;;19.39;74.08;100948.44;4975055;28;45477;-77
2022/06/04 06:21:23;;;;;;;;;17.00;16.25;;;;;19.41;73.98;100950.00;4975100;28;45474;-77
2022/06/04 06:23:50;;;;;;;;;16.50;16.25;;;;;19.42;74.05;100967.91;4975889;28;45476;-77
2022/06/04 06:26:21;;;;;;;;;22.75;18.50;;;;;19.48;73.86;100996.19;4975065;28;45467;-77
2022/06/04 06:28:47;;;;;;;;;14.75;14.50;;;;;19.45;73.67;100981.09;4974873;28;45377;-77
2022/06/04 06:31:19;;;;;;;;;15.75;15.00;;;;;19.43;73.93;101007.38;4974167;28;45598;-77
2022/06/04 06:33:45;;;;;;;;;22.25;18.50;;;;;19.45;74.05;101045.91;4974794;28;45518;-77
2022/06/04 06:36:12;;;;;;;;;15.25;15.25;;;;;19.45;73.72;101042.38;4974342;28;45604;-77
2022/06/04 06:38:38;;;;;;;;;20.50;16.00;;;;;19.46;73.55;101031.44;4975254;28;46405;-77
2022/06/04 06:41:05;;;;;;;;;22.00;18.75;;;;;19.46;73.31;101025.16;4974745;28;45455;-77
2022/06/04 06:43:35;;;;;;;;;20.00;17.25;;;;;19.45;73.42;101037.81;4974240;28;45399;-77
2022/06/04 06:46:02;;;;;;;;;19.50;19.00;;;;;19.46;73.95;101036.84;4974162;28;45507;-77
2022/06/04 06:48:28;;;;;;;;;18.00;18.00;;;;;19.46;73.90;101009.84;4973620;28;45772;-77
2022/06/04 06:50:53;;;;;;;;;18.75;18.75;;;;;19.48;73.67;101005.16;4974638;28;45688;-76
2022/06/04 06:53:18;;;;;;;;;18.25;18.25;;;;;19.46;73.81;101000.84;4972343;28;45536;-76
2022/06/04 06:55:44;;;;;;;;;18.00;17.25;;;;;19.45;73.95;101000.00;4973933;28;52309;-76
2022/06/04 06:58:09;;;;;;;;;17.25;17.25;;;;;19.46;74.08;101004.44;4973083;28;53553;-76
2022/06/04 07:00:35;;;;;;;;;16.50;16.25;;;;;19.42;74.32;101013.78;4973575;28;45755;-76
2022/06/04 07:03:00;;;;;;;;;19.50;16.00;;;;;19.46;74.12;101012.53;4977054;28;45511;-76
2022/06/04 07:05:26;;;;;;;;;19.25;18.25;;;;;19.49;74.17;101014.13;4976665;28;45491;-77
2022/06/04 07:07:51;;;;;;;;;20.25;19.00;;;;;19.50;74.10;101005.84;4978181;28;45817;-77
2022/06/04 07:10:17;;;;;;;;;18.25;18.00;;;;;19.51;74.25;100995.94;4977595;28;45466;-77
2022/06/04 07:12:44;;;;;;;;;20.75;17.75;;;;;19.48;74.58;100980.84;4977275;28;45386;-78
2022/06/04 07:15:09;;;;;;;;;15.50;14.25;;;;;19.50;74.63;100973.44;4977066;28;45370;-77
2022/06/04 07:17:35;;;;;;;;;16.75;16.25;;;;;19.52;74.69;100966.06;4976976;28;46014;-77
2022/06/04 07:20:00;;;;;;;;;18.00;18.00;;;;;19.55;74.46;100960.41;4975684;28;45476;-77
2022/06/04 07:22:26;;;;;;;;;19.00;17.75;;;;;19.56;74.60;100966.66;4976661;28;45406;-77
2022/06/04 07:24:55;;;;;;;;;18.00;18.00;;;;;19.59;74.37;100969.91;4977540;28;45571;-78
2022/06/04 07:27:20;;;;;;;;;16.25;16.25;;;;;19.62;74.86;100979.59;4974498;28;46720;-77
2022/06/04 07:29:46;;;;;;;;;21.25;16.75;;;;;19.67;74.29;100990.81;4984998;28;45471;-77
2022/06/04 07:32:11;;;;;;;;;17.00;17.00;;;;;19.73;73.82;100987.63;4979630;28;47447;-78
2022/06/04 07:34:36;;;;;;;;;19.50;17.50;;;;;19.75;73.48;100984.78;4977454;28;45504;-77
2022/06/04 07:37:02;;;;;;;;;19.75;17.75;;;;;19.81;73.74;100989.63;4977345;28;45282;-79
2022/06/04 07:39:27;;;;;;;;;18.75;17.00;;;;;19.90;73.67;100994.19;4977604;28;45487;-78
2022/06/04 07:41:54;;;;;;;;;17.75;17.75;;;;;19.98;73.29;100986.22;4976444;28;45297;-78
2022/06/04 07:44:22;;;;;;;;;16.25;15.50;;;;;20.04;73.13;100992.06;4977543;28;45470;-77
2022/06/04 07:46:48;;;;;;;;;16.75;16.25;;;;;20.06;72.68;100995.47;4976813;28;46157;-76
2022/06/04 07:49:14;;;;;;;;;23.00;18.50;;;;;20.13;72.41;100996.59;4976984;28;45385;-77
2022/06/04 07:51:42;;;;;;;;;22.50;17.75;;;;;20.15;72.78;100992.75;4977455;28;45372;-79
2022/06/04 07:54:08;;;;;;;;;16.50;16.50;;;;;20.22;72.74;101001.16;4977545;28;45541;-76
2022/06/04 07:56:34;;;;;;;;;17.25;16.00;;;;;20.29;72.49;101004.16;4975836;28;45949;-76
2022/06/04 07:58:59;;;;;;;;;19.00;19.00;;;;;20.36;71.83;100991.78;4974734;28;46646;-76
2022/06/04 08:01:25;;;;;;;;;18.50;15.50;;;;;20.47;71.35;101001.56;4977161;28;45534;-76
2022/06/04 08:03:53;;;;;;;;;16.00;14.50;;;;;20.57;71.23;100997.06;4976184;28;45499;-76
2022/06/04 08:06:19;;;;;;;;;15.50;14.50;;;;;20.70;70.68;101000.28;4976213;28;45960;-74
2022/06/04 08:08:47;;;;;;;;;19.75;16.50;;;;;20.78;70.61;101000.44;4976947;28;45465;-74
2022/06/04 08:11:31;;;;;;;;;20.00;18.75;;;;;20.91;70.53;101001.97;4976467;28;45467;-74
2022/06/04 08:13:58;;;;;;;;;19.00;18.75;;;;;21.01;70.08;100994.66;4990842;28;47846;-74
2022/06/04 08:16:23;;;;;;;;;22.25;19.00;;;;;21.09;68.97;100994.75;4976671;28;45443;-74
2022/06/04 08:18:49;;;;;;;;;17.25;16.25;;;;;21.17;69.25;100989.47;4976880;28;45297;-75
2022/06/04 08:21:15;;;;;;;;;19.25;18.50;;;;;21.26;69.10;100994.00;4976067;28;46948;-74
2022/06/04 08:23:43;;;;;;;;;16.50;16.50;;;;;21.36;68.97;100983.13;4976890;28;45547;-74
2022/06/04 08:26:09;;;;;;;;;16.00;15.00;;;;;21.46;68.13;100977.69;4976538;28;46432;-74
2022/06/04 08:28:35;;;;;;;;;16.50;16.50;;;;;21.54;68.21;100968.78;5005112;28;45642;-74
2022/06/04 08:31:03;;;;;;;;;15.50;14.75;;;;;21.63;67.28;100967.88;4975468;28;45506;-74
2022/06/04 08:33:29;;;;;;;;;18.75;16.75;;;;;21.70;67.06;100971.69;4975103;28;45548;-74
2022/06/04 08:35:54;;;;;;;;;15.00;15.00;;;;;21.79;67.48;100976.19;4976544;28;45502;-76
2022/06/04 08:38:20;;;;;;;;;14.00;14.00;;;;;21.84;66.40;100979.28;4976479;28;45483;-76
2022/06/04 08:40:52;;;;;;;;;15.25;14.75;;;;;21.89;65.33;100981.53;4976577;28;45306;-76
2022/06/04 08:43:23;;;;;;;;;14.00;14.00;;;;;21.97;65.65;100981.59;4976411;28;45290;-75
2022/06/04 08:45:49;;;;;;;;;14.25;13.50;;;;;22.01;65.25;100980.31;4975665;28;46383;-75
2022/06/04 08:48:20;;;;;;;;;17.75;15.50;;;;;22.07;65.02;100982.38;4975170;28;45614;-75
2022/06/04 08:50:47;;;;;;;;;10.50;10.50;;;;;22.12;64.98;100993.59;4975678;28;45369;-75
2022/06/04 08:53:25;;;;;;;;;13.00;12.75;;;;;22.19;64.12;100995.72;4976169;28;45554;-75
2022/06/04 08:58:56;;;;;;;;;15.00;15.00;;;;;22.27;64.26;100995.81;4977545;28;45503;-76
2022/06/04 09:01:29;;;;;;;;;15.25;15.25;;;;;22.33;64.25;100995.19;4976078;28;45377;-75
2022/06/04 09:03:58;;;;;;;;;18.50;18.25;;;;;22.39;63.77;101007.25;4990919;28;45369;-78
2022/06/04 09:06:36;;;;;;;;;20.00;19.25;;;;;22.44;63.73;101018.50;4983821;28;45352;-77
2022/06/04 09:09:16;;;;;;;;;16.00;14.50;;;;;22.51;63.41;101019.56;4972628;28;45458;-75
2022/06/04 09:11:53;;;;;;;;;17.75;17.50;;;;;22.57;64.02;101007.25;4975119;28;45463;-76
2022/06/04 09:14:28;;;;;;;;;17.00;15.50;;;;;22.62;63.36;101010.34;4973322;28;45299;-78
2022/06/04 09:17:14;;;;;;;;;17.25;14.25;;;;;22.70;63.18;101013.09;4975278;28;47577;-77
2022/06/04 09:19:42;;;;;;;;;14.00;12.25;;;;;22.74;63.07;101018.06;5001775;28;46214;-77
2022/06/04 09:22:21;;;;;;;;;14.25;14.25;;;;;22.80;62.51;101010.28;4964564;28;45414;-77
2022/06/04 09:24:46;;;;;;;;;14.25;13.75;;;;;22.87;62.39;101008.63;4975677;28;45539;-77
2022/06/04 09:27:22;;;;;;;;;16.00;15.00;;;;;22.92;62.93;101009.88;4984099;28;45527;-77
2022/06/04 09:29:55;;;;;;;;;17.00;17.00;;;;;23.01;62.70;101015.38;4973460;28;45566;-76
2022/06/04 09:32:45;;;;;;;;;10.75;10.50;;;;;23.06;61.68;101016.59;4973761;28;45511;-76
2022/06/04 09:35:17;;;;;;;;;13.25;13.25;;;;;23.11;61.11;101016.97;4974763;28;45304;-77
2022/06/04 09:37:45;;;;;;;;;14.00;13.75;;;;;23.17;61.31;101027.19;4989806;28;46389;-77
2022/06/04 09:40:24;;;;;;;;;14.00;14.00;;;;;23.24;61.28;101021.13;4975220;28;45416;-77
2022/06/04 09:42:50;;;;;;;;;11.75;10.00;;;;;23.30;61.58;101020.47;4973664;28;45303;-76
2022/06/04 09:45:26;;;;;;;;;14.00;13.00;;;;;23.36;60.58;101019.81;4975369;28;45471;-76
2022/06/04 09:47:58;;;;;;;;;16.00;15.00;;;;;23.43;60.53;101009.13;4973169;28;48165;-76
2022/06/04 09:50:29;;;;;;;;;15.50;15.00;;;;;23.49;60.59;101012.06;4974017;28;45591;-76
2022/06/04 09:53:13;;;;;;;;;14.75;14.75;;;;;23.55;60.45;101010.56;4974440;28;45361;-76
2022/06/04 09:55:55;;;;;;;;;17.50;17.50;;;;;23.63;60.46;101016.03;4975314;28;45471;-76
2022/06/04 09:58:27;;;;;;;;;16.00;14.75;;;;;23.71;60.60;101010.59;4966386;28;45495;-76
2022/06/04 10:01:06;;;;;;;;;17.50;16.50;;;;;23.79;60.64;101010.66;4974541;28;45362;-79
2022/06/04 10:03:38;;;;;;;;;13.25;12.75;;;;;23.87;60.81;101009.84;4970069;28;45677;-79
2022/06/04 10:06:11;;;;;;;;;16.50;14.75;;;;;23.96;60.20;101008.00;4971558;28;45409;-76
2022/06/04 10:11:34;;;;;;;;;12.75;12.00;;;;;24.11;59.01;101008.19;4974221;28;45590;-77
2022/06/04 10:14:00;;;;;;;;;13.75;13.50;;;;;24.17;58.74;101008.38;4974610;28;45487;-80
2022/06/04 10:16:40;;;;;;;;;14.25;9.50;;;;;24.25;59.29;101007.53;4974716;28;45388;-89
2022/06/04 10:19:19;;;;;;;;;14.00;14.00;;;;;24.34;58.67;101011.06;4974659;28;46263;-85
2022/06/04 10:21:47;;;;;;;;;13.00;13.00;;;;;24.40;59.05;101008.53;4974174;28;45507;-80
2022/06/04 10:24:30;;;;;;;;;11.00;11.00;;;;;24.48;58.22;101010.44;4973900;28;45754;-82
2022/06/04 10:26:57;;;;;;;;;13.25;13.25;;;;;24.54;58.26;100998.88;4980170;28;45282;-81
2022/06/04 10:29:35;;;;;;;;;15.00;14.25;;;;;24.64;58.19;101002.25;4972885;28;47227;-82
2022/06/04 10:32:26;;;;;;;;;13.25;13.25;;;;;24.72;58.31;100995.94;4973071;28;45698;-82
2022/06/04 10:35:15;;;;;;;;;14.50;12.00;;;;;24.81;58.45;100991.34;4972397;28;45460;-81
2022/06/04 10:38:16;;;;;;;;;12.00;12.00;;;;;24.91;58.33;100992.00;4975482;28;45534;-82
2022/06/04 10:41:05;;;;;;;;;14.50;13.00;;;;;25.03;57.57;100981.59;4945438;28;46159;-82
2022/06/04 10:43:49;;;;;;;;;16.00;16.00;;;;;25.15;57.28;100984.78;4952504;28;45535;-81
2022/06/04 10:46:35;;;;;;;;;16.00;16.00;;;;;25.24;56.61;100984.63;4929339;28;45495;-82
2022/06/04 10:49:45;;;;;;;;;11.00;11.00;;;;;25.36;56.62;100986.97;4945205;28;45353;-82
2022/06/04 10:52:44;;;;;;;;;12.75;12.25;;;;;25.49;56.58;100992.69;4856854;29;45520;-82
2022/06/04 10:55:24;;;;;;;;;14.00;13.00;;;;;25.61;56.30;100990.41;4857120;29;45476;-82
2022/06/04 10:58:17;;;;;;;;;11.25;11.25;;;;;25.72;56.08;100979.09;4858906;29;45564;-82
2022/06/04 11:00:48;;;;;;;;;14.50;12.50;;;;;25.84;55.44;100979.56;4859894;29;45580;-82
2022/06/04 11:03:39;;;;;;;;;13.25;11.25;;;;;25.97;54.85;100976.25;4859147;29;45464;-82
2022/06/04 11:06:29;;;;;;;;;13.00;13.00;;;;;26.11;55.09;100970.84;4861358;29;45413;-82
2022/06/04 11:09:02;;;;;;;;;11.50;8.50;;;;;26.24;54.86;100975.72;4857378;29;45605;-82
2022/06/04 11:11:41;;;;;;;;;9.25;9.25;;;;;26.37;54.48;100968.78;4861053;29;45572;-82
2022/06/04 11:14:14;;;;;;;;;12.75;12.75;;;;;26.47;53.38;100966.63;4856747;29;45587;-83
2022/06/04 11:16:42;;;;;;;;;9.75;9.75;;;;;26.60;54.28;100964.13;4884593;29;45425;-82
2022/06/04 11:19:15;;;;;;;;;12.00;12.00;;;;;26.73;53.45;100978.00;4897285;29;45527;-82
2022/06/04 11:21:56;;;;;;;;;12.75;10.25;;;;;26.86;52.56;100960.97;4897247;29;45412;-82
2022/06/04 11:24:33;;;;;;;;;11.00;11.00;;;;;26.96;51.50;100960.69;4897571;29;46255;-82
2022/06/04 11:27:04;;;;;;;;;8.00;8.00;;;;;27.08;51.46;100956.44;4899153;29;45425;-82
2022/06/04 11:29:31;;;;;;;;;10.00;10.00;;;;;27.15;51.02;100957.38;4979958;28;45551;-82
2022/06/04 11:32:21;;;;;;;;;8.50;8.00;;;;;27.25;50.56;100957.16;4973673;28;45481;-82
2022/06/04 11:35:05;;;;;;;;;9.00;9.00;;;;;27.35;50.53;100957.69;4977198;28;46839;-82
2022/06/04 11:37:46;;;;;;;;;7.00;7.00;;;;;27.41;49.40;100958.78;4977215;28;45354;-82
2022/06/04 11:40:26;;;;;;;;;7.50;7.50;;;;;27.46;48.57;100963.69;5008910;28;45393;-82
2022/06/04 11:42:58;;;;;;;;;5.00;3.75;;;;;27.52;48.29;100958.31;4973287;28;45579;-82
2022/06/04 11:45:34;;;;;;;;;7.00;7.00;;;;;27.57;48.11;100946.78;4977296;28;46231;-82